aviador You're here:

LYUZ Decoded Metar

UZICE PONIKVE in SERBIA
Report Time2017-10-17 20:00:00
UTC Time2017-10-17 20:33:11
Flight Rules vfr VFR
Wind130° at 03 kt
W.Rank130° ranks 32
Current wind is below 130° avg. (3.4)
Visibility9999 m
Phenomena:N/A
Clouds:N/A
Expected CloudBase > 2,800 ft AGL from Temp-Dew spread
CeilingNone
Temp17°C (ISA +8)
Dew Point10°C (64% RH)
AAT16.0°C
QNH1026 hPa
Density Alt3,684 ft
Elevation3,012 ft
Report Wrong Elevation
Raw Report
METAR LYUZ 172000Z AUTO 13003KT 100V170 CAVOK 17/10 Q1026=

Extra information for LYUZ:More info

Metar Taf Metar & Taf Last 4 Metars F.Rules Stats Wind Profile Meteogram Temp Stats Airport Information Weather charts Add Link Nearby VenuesMetar ALERT Operation Metar Decoded Social comments